createdAt,value
2022-11-22T00:00:52.498Z,84.50
2022-11-22T00:03:20.516Z,84.60
2022-11-22T00:05:48.382Z,84.50
2022-11-22T00:08:16.270Z,84.40
2022-11-22T00:10:45.514Z,84.30
2022-11-22T00:13:13.317Z,84.20
2022-11-22T00:15:41.302Z,84.10
2022-11-22T00:18:09.345Z,84.10
2022-11-22T00:20:37.241Z,84.10
2022-11-22T00:23:05.198Z,84.00
2022-11-22T00:25:33.025Z,84.00
2022-11-22T00:28:02.340Z,83.90
2022-11-22T00:30:30.285Z,83.90
2022-11-22T00:32:58.250Z,84.00
2022-11-22T00:35:26.346Z,84.10
2022-11-22T00:37:54.199Z,84.00
2022-11-22T00:40:22.238Z,83.80
2022-11-22T00:42:50.076Z,83.60
2022-11-22T00:45:19.389Z,83.70
2022-11-22T00:47:47.198Z,84.00
2022-11-22T00:50:15.086Z,84.10
2022-11-22T00:52:42.897Z,84.20
2022-11-22T00:55:10.828Z,84.30
2022-11-22T00:57:38.653Z,84.40
2022-11-22T01:00:07.422Z,84.50
2022-11-22T01:02:36.647Z,84.10
2022-11-22T01:05:04.877Z,84.10
2022-11-22T01:07:32.839Z,84.20
2022-11-22T01:10:00.746Z,84.30
2022-11-22T01:12:28.652Z,84.30
2022-11-22T01:14:56.549Z,84.40
2022-11-22T01:17:24.434Z,84.40
2022-11-22T01:19:53.666Z,84.40
2022-11-22T01:22:21.616Z,84.40
2022-11-22T01:24:49.468Z,84.50
2022-11-22T01:27:17.350Z,84.50
2022-11-22T01:29:45.213Z,84.50
2022-11-22T01:32:13.223Z,84.50
2022-11-22T01:34:41.100Z,84.50
2022-11-22T01:37:10.302Z,84.50
2022-11-22T01:39:38.116Z,84.60
2022-11-22T01:42:05.974Z,84.60
2022-11-22T01:44:34.192Z,84.70
2022-11-22T01:47:04.777Z,84.70
2022-11-22T01:49:35.004Z,84.80
2022-11-22T01:52:04.328Z,84.80
2022-11-22T01:54:35.158Z,84.80
2022-11-22T01:57:05.549Z,84.90
2022-11-22T01:59:34.971Z,85.00
2022-11-22T02:02:03.377Z,85.00
2022-11-22T02:04:34.078Z,85.10
2022-11-22T02:07:04.644Z,85.10
2022-11-22T02:09:34.303Z,85.20
2022-11-22T02:12:03.301Z,85.20
2022-11-22T02:14:32.209Z,85.20
2022-11-22T02:17:00.100Z,85.30
2022-11-22T02:19:32.365Z,85.30
2022-11-22T02:22:03.135Z,85.30
2022-11-22T02:24:36.420Z,85.30
2022-11-22T02:27:05.645Z,85.30
2022-11-22T02:29:33.920Z,85.20
2022-11-22T02:32:01.747Z,85.20
2022-11-22T02:34:29.598Z,85.00
2022-11-22T02:36:57.386Z,84.90
2022-11-22T02:39:27.844Z,84.90
2022-11-22T02:41:56.848Z,84.90
2022-11-22T02:44:26.323Z,84.90
2022-11-22T02:46:55.249Z,85.00
2022-11-22T02:49:28.457Z,85.00
2022-11-22T02:51:56.580Z,84.90
2022-11-22T02:54:24.394Z,85.00
2022-11-22T02:56:52.363Z,85.00
2022-11-22T02:59:20.195Z,85.00
2022-11-22T03:01:49.872Z,85.00
2022-11-22T03:04:25.584Z,85.00
2022-11-22T03:06:54.194Z,85.00
2022-11-22T03:09:22.072Z,85.00
2022-11-22T03:11:50.008Z,85.10
2022-11-22T03:14:18.127Z,85.20
2022-11-22T03:16:46.643Z,85.20
2022-11-22T03:19:15.758Z,85.20
2022-11-22T03:21:44.067Z,85.10
2022-11-22T03:24:12.209Z,85.10
2022-11-22T03:26:40.360Z,85.00
2022-11-22T03:29:08.190Z,85.10
2022-11-22T03:31:36.853Z,85.10
2022-11-22T03:34:04.724Z,85.20
2022-11-22T03:36:33.926Z,85.20
2022-11-22T03:39:01.792Z,85.20
2022-11-22T03:41:29.609Z,85.20
2022-11-22T03:43:57.482Z,85.30
2022-11-22T03:46:25.338Z,85.40
2022-11-22T03:48:53.450Z,85.50
2022-11-22T03:51:21.253Z,85.50
2022-11-22T03:53:50.576Z,85.40
2022-11-22T03:56:18.386Z,85.40
2022-11-22T03:58:46.289Z,85.50
2022-11-22T04:01:16.815Z,85.50
2022-11-22T04:03:44.907Z,85.50
2022-11-22T04:06:12.835Z,85.50
2022-11-22T04:08:40.715Z,85.40
2022-11-22T04:11:10.044Z,85.20
2022-11-22T04:13:55.629Z,85.10
2022-11-22T04:16:23.538Z,85.10
2022-11-22T04:18:51.380Z,85.10
2022-11-22T04:21:36.503Z,85.20
2022-11-22T04:24:22.910Z,85.20
2022-11-22T04:26:52.314Z,85.20
2022-11-22T04:29:21.070Z,85.20
2022-11-22T04:32:07.864Z,85.20
2022-11-22T04:34:36.168Z,85.20
2022-11-22T04:37:04.400Z,85.40
2022-11-22T04:39:32.475Z,85.40
2022-11-22T04:42:19.623Z,85.50
2022-11-22T04:44:47.563Z,85.50
2022-11-22T04:47:38.699Z,85.50
2022-11-22T04:50:29.042Z,85.50
2022-11-22T04:52:56.177Z,85.50
2022-11-22T04:55:24.260Z,85.60
2022-11-22T04:57:59.239Z,85.60
2022-11-22T05:00:28.448Z,85.70
2022-11-22T05:02:56.304Z,85.70
2022-11-22T05:05:24.438Z,85.70
2022-11-22T05:07:52.324Z,85.70
2022-11-22T05:10:26.197Z,85.60
2022-11-22T05:12:56.183Z,85.50
2022-11-22T05:15:24.226Z,85.50
2022-11-22T05:17:52.009Z,85.50
2022-11-22T05:20:19.998Z,85.40
2022-11-22T05:23:05.417Z,85.40
2022-11-22T05:25:33.339Z,85.40
2022-11-22T05:28:02.577Z,85.40
2022-11-22T05:30:30.439Z,85.40
2022-11-22T05:32:58.280Z,85.40
2022-11-22T05:35:26.218Z,85.40
2022-11-22T05:37:54.158Z,85.30
2022-11-22T05:40:21.954Z,85.20
2022-11-22T05:42:49.801Z,85.20
2022-11-22T05:45:19.419Z,85.10
2022-11-22T05:47:47.239Z,85.00
2022-11-22T05:50:15.164Z,84.90
2022-11-22T05:52:55.933Z,84.80
2022-11-22T05:55:23.919Z,84.80
2022-11-22T05:57:52.242Z,84.80
2022-11-22T06:00:21.632Z,84.90
2022-11-22T06:02:49.494Z,85.00
2022-11-22T06:05:17.463Z,85.00
2022-11-22T06:07:45.816Z,85.00
2022-11-22T06:10:13.748Z,85.10
2022-11-22T06:12:41.626Z,85.00
2022-11-22T06:15:10.117Z,85.10
2022-11-22T06:17:39.339Z,85.20
2022-11-22T06:20:07.800Z,85.30
2022-11-22T06:22:35.951Z,85.30
2022-11-22T06:25:04.212Z,85.20
2022-11-22T06:27:32.097Z,85.00
2022-11-22T06:30:00.015Z,85.00
2022-11-22T06:32:27.899Z,84.90
2022-11-22T06:34:57.063Z,84.80
2022-11-22T06:37:24.919Z,84.80
2022-11-22T06:39:53.015Z,84.90
2022-11-22T06:42:20.927Z,84.90
2022-11-22T06:44:48.850Z,85.00
2022-11-22T06:47:17.555Z,85.10
2022-11-22T06:49:45.557Z,85.10
2022-11-22T06:52:14.739Z,85.10
2022-11-22T06:54:42.585Z,85.10
2022-11-22T06:57:10.546Z,85.10
2022-11-22T06:59:39.355Z,85.00
2022-11-22T07:02:07.728Z,85.00
2022-11-22T07:04:35.680Z,85.00
2022-11-22T07:07:03.676Z,84.90
2022-11-22T07:09:33.185Z,84.80
2022-11-22T07:12:01.264Z,84.60
2022-11-22T07:14:29.391Z,84.60
2022-11-22T07:16:57.273Z,84.50
2022-11-22T07:19:25.133Z,84.50
2022-11-22T07:21:53.428Z,84.40
2022-11-22T07:24:21.314Z,84.30
2022-11-22T07:26:53.644Z,84.60
2022-11-22T07:29:21.562Z,84.40
2022-11-22T07:31:49.427Z,84.20
2022-11-22T07:34:17.240Z,84.10
2022-11-22T07:36:45.110Z,84.10
2022-11-22T07:39:12.932Z,84.00
2022-11-22T07:41:40.702Z,83.80
2022-11-22T07:44:09.959Z,83.80
2022-11-22T07:46:37.894Z,83.80
2022-11-22T07:49:05.826Z,83.80
2022-11-22T07:51:33.678Z,83.70
2022-11-22T07:54:01.765Z,83.70
2022-11-22T07:56:29.608Z,83.70
2022-11-22T07:58:57.403Z,83.60
2022-11-22T08:01:27.003Z,83.50
2022-11-22T08:03:54.984Z,83.30
2022-11-22T08:06:22.818Z,83.30
2022-11-22T08:08:50.711Z,83.40
2022-11-22T08:11:18.622Z,83.20
2022-11-22T08:13:46.519Z,83.30
2022-11-22T08:16:15.253Z,83.10
2022-11-22T08:18:46.786Z,82.60
2022-11-22T08:21:15.161Z,82.40
2022-11-22T08:23:43.856Z,82.20
2022-11-22T08:26:13.382Z,81.60
2022-11-22T08:28:46.349Z,81.40
2022-11-22T08:31:15.557Z,80.90
2022-11-22T08:33:44.774Z,80.40
2022-11-22T08:36:13.051Z,80.20
2022-11-22T08:38:40.879Z,80.30
2022-11-22T08:41:08.762Z,80.20
2022-11-22T08:43:36.624Z,80.00
2022-11-22T08:46:04.667Z,79.60
2022-11-22T08:48:33.403Z,79.40
2022-11-22T08:51:03.390Z,79.10
2022-11-22T08:53:32.639Z,79.30
2022-11-22T08:56:01.332Z,79.50
2022-11-22T08:58:31.503Z,79.00
2022-11-22T09:01:04.721Z,79.20
2022-11-22T09:03:32.779Z,78.90
2022-11-22T09:09:02.853Z,79.30
2022-11-22T09:11:39.694Z,79.30
2022-11-22T09:14:07.615Z,79.40
2022-11-22T09:16:35.534Z,78.30
2022-11-22T09:19:03.367Z,78.50
2022-11-22T09:21:32.572Z,77.60
2022-11-22T09:24:00.426Z,77.40
2022-11-22T09:26:28.246Z,76.40
2022-11-22T09:28:57.195Z,76.00
2022-11-22T09:31:25.275Z,75.90
2022-11-22T09:33:53.369Z,76.20
2022-11-22T09:36:22.343Z,76.30
2022-11-22T09:38:57.625Z,75.80
2022-11-22T09:41:42.813Z,75.40
2022-11-22T09:44:13.642Z,75.30
2022-11-22T09:46:44.414Z,75.10
2022-11-22T09:49:26.987Z,75.20
2022-11-22T09:51:57.361Z,74.40
2022-11-22T09:54:29.227Z,74.70
2022-11-22T09:57:00.119Z,74.80
2022-11-22T09:59:30.456Z,74.80
2022-11-22T10:02:11.683Z,75.50
2022-11-22T10:04:47.744Z,75.40
2022-11-22T10:07:18.358Z,75.40
2022-11-22T10:09:52.023Z,75.50
2022-11-22T10:12:22.317Z,75.60
2022-11-22T10:14:53.645Z,75.60
2022-11-22T10:17:24.955Z,76.00
2022-11-22T10:19:54.771Z,76.30
2022-11-22T10:22:22.821Z,75.90
2022-11-22T10:24:52.127Z,75.40
2022-11-22T10:27:20.032Z,75.80
2022-11-22T10:29:52.076Z,75.70
2022-11-22T10:32:22.917Z,76.30
2022-11-22T10:34:59.219Z,76.40
2022-11-22T10:37:31.780Z,75.80
2022-11-22T10:40:05.062Z,75.10
2022-11-22T10:42:39.165Z,75.20
2022-11-22T10:45:13.143Z,75.90
2022-11-22T10:47:46.838Z,76.00
2022-11-22T10:50:18.373Z,75.60
2022-11-22T10:52:49.612Z,75.30
2022-11-22T10:55:26.877Z,75.50
2022-11-22T10:58:00.707Z,75.50
2022-11-22T11:00:29.508Z,75.20
2022-11-22T11:03:13.031Z,76.00
2022-11-22T11:09:23.357Z,75.70
2022-11-22T11:11:26.755Z,75.80
2022-11-22T11:13:58.024Z,75.80
2022-11-22T11:16:30.827Z,75.90
2022-11-22T11:18:59.801Z,76.40
2022-11-22T11:21:28.134Z,75.70
2022-11-22T11:23:56.034Z,76.40
2022-11-22T11:26:27.203Z,76.10
2022-11-22T11:29:09.883Z,75.20
2022-11-22T11:31:43.544Z,75.40
2022-11-22T11:34:17.719Z,75.30
2022-11-22T11:36:45.686Z,74.90
2022-11-22T11:39:20.564Z,75.00
2022-11-22T11:41:50.695Z,74.00
2022-11-22T11:44:28.077Z,73.90
2022-11-22T11:46:56.419Z,74.30
2022-11-22T11:49:25.724Z,74.20
2022-11-22T11:51:55.900Z,74.40
2022-11-22T11:54:26.616Z,73.80
2022-11-22T11:56:58.677Z,74.00
2022-11-22T11:59:31.776Z,73.70
2022-11-22T12:02:03.398Z,74.40
2022-11-22T12:04:33.521Z,74.50
2022-11-22T12:07:05.648Z,74.30
2022-11-22T12:09:37.683Z,74.50
2022-11-22T12:12:13.920Z,73.70
2022-11-22T12:15:09.845Z,73.40
2022-11-22T12:17:36.621Z,73.60
2022-11-22T12:20:05.909Z,73.40
2022-11-22T12:22:49.536Z,73.50
2022-11-22T12:25:32.556Z,73.60
2022-11-22T12:28:05.297Z,73.20
2022-11-22T12:30:33.991Z,73.40
2022-11-22T12:33:03.045Z,73.20
2022-11-22T12:35:33.798Z,73.50
2022-11-22T12:38:04.666Z,73.10
2022-11-22T12:40:34.140Z,73.40
2022-11-22T12:43:05.574Z,74.00
2022-11-22T12:45:35.651Z,73.80
2022-11-22T12:48:06.834Z,73.50
2022-11-22T12:50:38.935Z,73.80
2022-11-22T12:53:11.574Z,73.60
2022-11-22T12:55:44.657Z,73.30
2022-11-22T12:58:20.302Z,73.50
2022-11-22T13:00:55.440Z,73.30
2022-11-22T13:03:27.748Z,73.20
2022-11-22T13:05:57.695Z,73.50
2022-11-22T13:08:29.887Z,73.80
2022-11-22T13:10:59.945Z,73.50
2022-11-22T13:13:32.470Z,73.70
2022-11-22T13:16:04.069Z,73.60
2022-11-22T13:18:33.909Z,73.40
2022-11-22T13:21:04.317Z,73.60
2022-11-22T13:23:40.612Z,73.50
2022-11-22T13:26:14.663Z,73.70
2022-11-22T13:28:45.894Z,73.80
2022-11-22T13:31:17.104Z,73.70
2022-11-22T13:33:53.435Z,73.50
2022-11-22T13:36:39.174Z,73.20
2022-11-22T13:39:10.552Z,73.60
2022-11-22T13:41:39.728Z,73.70
2022-11-22T13:44:19.544Z,73.80
2022-11-22T13:46:54.872Z,73.60
2022-11-22T13:49:37.450Z,73.50
2022-11-22T13:52:27.115Z,73.80
2022-11-22T13:55:02.509Z,73.90
2022-11-22T13:57:31.814Z,73.70
2022-11-22T14:00:19.782Z,74.30
2022-11-22T14:02:49.883Z,74.20
2022-11-22T14:05:19.790Z,74.60
2022-11-22T14:07:50.696Z,74.60
2022-11-22T14:10:33.727Z,74.60
2022-11-22T14:13:17.003Z,74.70
2022-11-22T14:16:03.017Z,75.00
2022-11-22T14:18:52.886Z,75.00
2022-11-22T14:21:27.662Z,75.00
2022-11-22T14:24:01.397Z,75.20
2022-11-22T14:26:32.983Z,75.60
2022-11-22T14:29:17.558Z,75.80
2022-11-22T14:31:59.092Z,76.20
2022-11-22T14:34:29.441Z,76.50
2022-11-22T14:37:16.649Z,77.00
2022-11-22T14:40:03.217Z,77.20
2022-11-22T14:42:48.192Z,77.40
2022-11-22T14:45:23.149Z,77.60
2022-11-22T14:47:59.155Z,77.70
2022-11-22T14:50:30.108Z,78.00
2022-11-22T14:52:59.853Z,77.90
2022-11-22T14:55:28.979Z,78.10
2022-11-22T14:57:59.259Z,78.20
2022-11-22T15:00:32.499Z,78.20
2022-11-22T15:03:14.772Z,78.70
2022-11-22T15:09:12.369Z,79.50
2022-11-22T15:09:16.122Z,78.90
2022-11-22T15:11:54.635Z,79.80
2022-11-22T15:14:44.022Z,79.90
2022-11-22T15:57:26.277Z,79.70
2022-11-22T15:59:55.381Z,79.80
2022-11-22T16:02:25.206Z,79.70
2022-11-22T16:06:06.818Z,79.70
2022-11-22T16:07:44.221Z,79.70
2022-11-22T16:10:18.396Z,79.50
2022-11-22T16:12:48.074Z,79.50
2022-11-22T16:15:27.760Z,79.70
2022-11-22T16:17:59.681Z,79.50
2022-11-22T16:20:33.509Z,79.50
2022-11-22T16:23:05.834Z,79.50
2022-11-22T16:25:34.580Z,79.60
2022-11-22T16:28:06.433Z,79.50
2022-11-22T16:30:42.407Z,79.80
2022-11-22T16:33:10.869Z,79.60
2022-11-22T16:35:38.933Z,79.80
2022-11-22T16:38:07.661Z,79.90
2022-11-22T16:40:38.995Z,80.00
2022-11-22T16:43:14.618Z,80.10
2022-11-22T16:45:42.820Z,80.30
2022-11-22T16:48:30.893Z,80.40
2022-11-22T16:51:00.699Z,80.50
2022-11-22T16:53:38.944Z,80.70
2022-11-22T16:56:07.331Z,81.10
2022-11-22T16:58:36.725Z,81.30
2022-11-22T17:01:05.101Z,81.50
2022-11-22T17:03:33.836Z,81.70
2022-11-22T17:06:02.120Z,81.80
2022-11-22T17:08:30.112Z,81.80
2022-11-22T17:11:00.033Z,82.00
2022-11-22T17:13:28.928Z,82.10
2022-11-22T17:15:58.525Z,82.10
2022-11-22T17:18:33.398Z,82.10
2022-11-22T17:21:01.659Z,82.10
2022-11-22T17:23:32.985Z,82.10
2022-11-22T17:26:01.248Z,82.20
2022-11-22T17:28:29.467Z,82.20
2022-11-22T17:31:01.829Z,82.30
2022-11-22T17:33:30.132Z,82.40
2022-11-22T17:35:58.516Z,82.60
2022-11-22T17:38:26.840Z,82.70
2022-11-22T17:40:59.670Z,82.90
2022-11-22T17:43:27.829Z,82.80
2022-11-22T17:45:56.077Z,82.60
2022-11-22T17:48:25.722Z,82.60
2022-11-22T17:50:54.072Z,82.70
2022-11-22T17:53:22.312Z,82.80
2022-11-22T17:58:38.506Z,82.90
2022-11-22T18:01:07.457Z,83.00
2022-11-22T18:03:37.033Z,83.10
2022-11-22T18:06:05.326Z,83.20
2022-11-22T18:08:34.093Z,83.40
2022-11-22T18:11:02.361Z,83.40
2022-11-22T18:13:31.484Z,83.60
2022-11-22T18:16:03.460Z,83.70
2022-11-22T18:21:21.595Z,83.90
2022-11-22T18:23:49.562Z,83.90
2022-11-22T18:26:38.757Z,83.90
2022-11-22T18:31:58.723Z,83.90
2022-11-22T18:34:27.559Z,83.90
2022-11-22T18:37:04.887Z,83.90
2022-11-22T18:39:35.850Z,83.90
2022-11-22T18:42:04.749Z,84.10
2022-11-22T18:44:32.783Z,84.10
2022-11-22T18:47:00.703Z,84.20
2022-11-22T18:49:28.730Z,84.30
2022-11-22T18:51:58.236Z,84.30
2022-11-22T18:54:26.505Z,84.40
2022-11-22T18:56:54.568Z,84.40
2022-11-22T18:59:22.463Z,84.50
2022-11-22T19:01:50.476Z,84.50
2022-11-22T19:04:18.418Z,84.50
2022-11-22T19:06:46.442Z,84.50
2022-11-22T19:09:15.962Z,84.50
2022-11-22T19:11:44.223Z,84.00
2022-11-22T19:14:12.833Z,84.00
2022-11-22T19:16:41.017Z,84.00
2022-11-22T19:19:11.271Z,84.00
2022-11-22T19:21:39.172Z,84.00
2022-11-22T19:24:07.493Z,84.10
2022-11-22T19:26:36.936Z,84.10
2022-11-22T19:29:05.018Z,84.10
2022-11-22T19:31:33.738Z,84.20
2022-11-22T19:34:01.734Z,84.30
2022-11-22T19:36:33.676Z,84.40
2022-11-22T19:39:03.763Z,84.40
2022-11-22T19:41:32.130Z,84.40
2022-11-22T19:44:01.537Z,84.50
2022-11-22T19:46:30.199Z,84.60
2022-11-22T19:48:58.841Z,84.60
2022-11-22T19:51:27.400Z,84.60
2022-11-22T19:53:56.951Z,84.60
2022-11-22T19:56:26.819Z,84.60
2022-11-22T19:59:01.783Z,84.50
2022-11-22T20:01:32.444Z,84.50
2022-11-22T20:04:01.423Z,84.50
2022-11-22T20:06:29.755Z,84.50
2022-11-22T20:09:00.984Z,84.50
2022-11-22T20:11:28.898Z,84.60
2022-11-22T20:13:57.441Z,84.70
2022-11-22T20:16:26.599Z,84.60
2022-11-22T20:18:56.466Z,84.60
2022-11-22T20:21:25.696Z,84.70
2022-11-22T20:23:53.866Z,84.70
2022-11-22T20:26:22.730Z,84.70
2022-11-22T20:28:55.392Z,84.70
2022-11-22T20:31:23.848Z,84.60
2022-11-22T20:33:52.800Z,84.70
2022-11-22T20:36:23.403Z,84.60
2022-11-22T20:38:52.602Z,84.60
2022-11-22T20:41:21.976Z,84.60
2022-11-22T20:43:56.586Z,84.60
2022-11-22T20:46:25.326Z,84.70
2022-11-22T20:48:54.043Z,84.70
2022-11-22T20:51:24.469Z,84.70
2022-11-22T20:53:53.050Z,84.60
2022-11-22T20:56:21.239Z,84.70
2022-11-22T20:58:49.219Z,84.70
2022-11-22T21:01:18.566Z,84.70
2022-11-22T21:03:47.024Z,84.70
2022-11-22T21:06:15.290Z,84.70
2022-11-22T21:08:45.841Z,84.60
2022-11-22T21:11:15.149Z,84.60
2022-11-22T21:13:43.743Z,84.50
2022-11-22T21:16:22.695Z,84.40
2022-11-22T21:18:52.732Z,84.30
2022-11-22T21:21:23.738Z,84.20
2022-11-22T21:23:54.301Z,84.10
2022-11-22T21:26:23.178Z,84.10
2022-11-22T21:28:56.279Z,84.00
2022-11-22T21:31:24.542Z,84.00
2022-11-22T21:33:52.865Z,84.00
2022-11-22T21:36:21.622Z,84.00
2022-11-22T21:38:50.331Z,83.90
2022-11-22T21:44:11.584Z,83.90
2022-11-22T21:46:39.974Z,84.20
2022-11-22T21:49:07.800Z,84.20
2022-11-22T21:51:35.694Z,84.10
2022-11-22T21:54:04.190Z,84.20
2022-11-22T21:56:33.779Z,84.20
2022-11-22T21:59:01.955Z,84.10
2022-11-22T22:01:29.990Z,84.00
2022-11-22T22:03:58.104Z,84.10
2022-11-22T22:06:26.239Z,84.10
2022-11-22T22:08:54.067Z,84.10
2022-11-22T22:11:23.261Z,84.10
2022-11-22T22:13:55.720Z,84.00
2022-11-22T22:16:26.101Z,84.00
2022-11-22T22:18:54.289Z,84.00
2022-11-22T22:21:22.399Z,84.00
2022-11-22T22:23:50.241Z,83.80
2022-11-22T22:26:18.892Z,83.70
2022-11-22T22:28:47.618Z,83.60
2022-11-22T22:31:22.274Z,83.60
2022-11-22T22:33:50.990Z,83.60
2022-11-22T22:36:18.941Z,83.60
2022-11-22T22:38:46.815Z,83.50
2022-11-22T22:41:15.386Z,83.40
2022-11-22T22:43:44.057Z,83.30
2022-11-22T22:46:13.283Z,83.40
2022-11-22T22:48:43.376Z,83.40
2022-11-22T22:51:12.679Z,83.40
2022-11-22T22:53:41.799Z,83.30
2022-11-22T22:56:09.994Z,83.30
2022-11-22T22:58:47.461Z,83.30
2022-11-22T23:01:17.401Z,83.30
2022-11-22T23:03:49.499Z,83.20
2022-11-22T23:06:17.914Z,83.30
2022-11-22T23:08:47.038Z,83.20
2022-11-22T23:11:14.973Z,83.00
2022-11-22T23:13:44.054Z,83.00
2022-11-22T23:16:13.411Z,83.00
2022-11-22T23:18:42.315Z,82.80
2022-11-22T23:21:13.599Z,82.80
2022-11-22T23:23:43.223Z,82.80
2022-11-22T23:26:12.463Z,82.80
2022-11-22T23:28:40.637Z,82.80
2022-11-22T23:31:09.193Z,82.60
2022-11-22T23:33:37.166Z,82.60
2022-11-22T23:36:05.801Z,82.60
2022-11-22T23:38:35.086Z,82.40
2022-11-22T23:41:02.912Z,82.40
2022-11-22T23:43:31.358Z,82.30
2022-11-22T23:45:59.586Z,82.30
2022-11-22T23:48:27.945Z,82.30
2022-11-22T23:50:55.913Z,82.30
2022-11-22T23:53:23.830Z,82.20
2022-11-22T23:55:53.271Z,82.30
2022-11-22T23:58:30.485Z,82.30
